sensor_id;sensor_type;location;lat;lon;timestamp;temperature;humidity
35085;SHT85;21267;51.032;6.998;2023-01-23T00:01:22;2.57;89.72
35085;SHT85;21267;51.032;6.998;2023-01-23T00:03:53;2.55;89.79
35085;SHT85;21267;51.032;6.998;2023-01-23T00:06:21;2.55;89.64
35085;SHT85;21267;51.032;6.998;2023-01-23T00:08:47;2.54;89.90
35085;SHT85;21267;51.032;6.998;2023-01-23T00:11:25;2.59;89.81
35085;SHT85;21267;51.032;6.998;2023-01-23T00:13:53;2.57;89.88
35085;SHT85;21267;51.032;6.998;2023-01-23T00:16:21;2.69;89.46
35085;SHT85;21267;51.032;6.998;2023-01-23T00:18:49;2.55;89.36
35085;SHT85;21267;51.032;6.998;2023-01-23T00:21:18;2.61;89.44
35085;SHT85;21267;51.032;6.998;2023-01-23T00:23:49;2.59;89.18
35085;SHT85;21267;51.032;6.998;2023-01-23T00:26:22;2.62;89.22
35085;SHT85;21267;51.032;6.998;2023-01-23T00:28:49;2.58;88.96
35085;SHT85;21267;51.032;6.998;2023-01-23T00:31:23;2.57;89.41
35085;SHT85;21267;51.032;6.998;2023-01-23T00:33:55;2.58;89.32
35085;SHT85;21267;51.032;6.998;2023-01-23T00:36:23;2.55;89.31
35085;SHT85;21267;51.032;6.998;2023-01-23T00:38:50;2.51;89.60
35085;SHT85;21267;51.032;6.998;2023-01-23T00:41:17;2.41;89.71
35085;SHT85;21267;51.032;6.998;2023-01-23T00:43:43;2.47;89.77
35085;SHT85;21267;51.032;6.998;2023-01-23T00:46:12;2.54;89.72
35085;SHT85;21267;51.032;6.998;2023-01-23T00:48:39;2.57;89.34
35085;SHT85;21267;51.032;6.998;2023-01-23T00:51:06;2.45;89.77
35085;SHT85;21267;51.032;6.998;2023-01-23T00:53:33;2.45;89.81
35085;SHT85;21267;51.032;6.998;2023-01-23T00:56:00;2.40;89.83
35085;SHT85;21267;51.032;6.998;2023-01-23T01:01:38;2.28;90.06
35085;SHT85;21267;51.032;6.998;2023-01-23T01:04:05;2.23;90.25
35085;SHT85;21267;51.032;6.998;2023-01-23T01:06:32;2.23;90.30
35085;SHT85;21267;51.032;6.998;2023-01-23T01:08:58;2.27;90.20
35085;SHT85;21267;51.032;6.998;2023-01-23T01:11:25;2.41;89.88
35085;SHT85;21267;51.032;6.998;2023-01-23T01:13:52;2.34;90.06
35085;SHT85;21267;51.032;6.998;2023-01-23T01:16:19;2.36;89.90
35085;SHT85;21267;51.032;6.998;2023-01-23T01:18:46;2.33;89.96
35085;SHT85;21267;51.032;6.998;2023-01-23T01:21:14;2.41;90.04
35085;SHT85;21267;51.032;6.998;2023-01-23T01:23:40;2.33;89.98
35085;SHT85;21267;51.032;6.998;2023-01-23T01:26:07;2.30;90.08
35085;SHT85;21267;51.032;6.998;2023-01-23T01:28:35;2.31;90.03
35085;SHT85;21267;51.032;6.998;2023-01-23T01:31:06;2.26;90.28
35085;SHT85;21267;51.032;6.998;2023-01-23T01:33:33;2.41;90.00
35085;SHT85;21267;51.032;6.998;2023-01-23T01:36:00;2.42;90.02
35085;SHT85;21267;51.032;6.998;2023-01-23T01:38:27;2.42;89.95
35085;SHT85;21267;51.032;6.998;2023-01-23T01:40:53;2.47;89.82
35085;SHT85;21267;51.032;6.998;2023-01-23T01:43:24;2.40;89.63
35085;SHT85;21267;51.032;6.998;2023-01-23T01:46:20;2.27;90.19
35085;SHT85;21267;51.032;6.998;2023-01-23T01:51:44;2.42;89.93
35085;SHT85;21267;51.032;6.998;2023-01-23T01:59:48;2.24;90.09
35085;SHT85;21267;51.032;6.998;2023-01-23T02:02:18;2.28;90.13
35085;SHT85;21267;51.032;6.998;2023-01-23T02:04:51;2.20;90.20
35085;SHT85;21267;51.032;6.998;2023-01-23T02:07:25;2.26;90.06
35085;SHT85;21267;51.032;6.998;2023-01-23T02:09:53;2.21;90.05
35085;SHT85;21267;51.032;6.998;2023-01-23T02:12:19;2.23;90.12
35085;SHT85;21267;51.032;6.998;2023-01-23T02:14:46;2.33;89.97
35085;SHT85;21267;51.032;6.998;2023-01-23T02:17:13;2.30;90.16
35085;SHT85;21267;51.032;6.998;2023-01-23T02:19:48;2.30;89.95
35085;SHT85;21267;51.032;6.998;2023-01-23T02:22:43;2.31;89.74
35085;SHT85;21267;51.032;6.998;2023-01-23T02:25:29;2.36;89.76
35085;SHT85;21267;51.032;6.998;2023-01-23T02:27:58;2.33;89.89
35085;SHT85;21267;51.032;6.998;2023-01-23T02:30:25;2.30;89.98
35085;SHT85;21267;51.032;6.998;2023-01-23T02:32:51;2.31;89.94
35085;SHT85;21267;51.032;6.998;2023-01-23T02:35:25;2.33;89.98
35085;SHT85;21267;51.032;6.998;2023-01-23T02:37:54;2.37;89.87
35085;SHT85;21267;51.032;6.998;2023-01-23T02:40:36;2.28;89.80
35085;SHT85;21267;51.032;6.998;2023-01-23T02:43:04;2.28;89.64
35085;SHT85;21267;51.032;6.998;2023-01-23T02:45:32;2.41;89.68
35085;SHT85;21267;51.032;6.998;2023-01-23T02:47:59;2.34;89.69
35085;SHT85;21267;51.032;6.998;2023-01-23T02:50:28;2.31;89.69
35085;SHT85;21267;51.032;6.998;2023-01-23T02:52:54;2.26;89.81
35085;SHT85;21267;51.032;6.998;2023-01-23T02:55:23;2.33;89.52
35085;SHT85;21267;51.032;6.998;2023-01-23T02:57:59;2.30;89.88
35085;SHT85;21267;51.032;6.998;2023-01-23T03:00:45;2.17;89.99
35085;SHT85;21267;51.032;6.998;2023-01-23T03:03:12;2.24;90.14
35085;SHT85;21267;51.032;6.998;2023-01-23T03:05:39;2.10;90.24
35085;SHT85;21267;51.032;6.998;2023-01-23T03:08:05;2.05;90.51
35085;SHT85;21267;51.032;6.998;2023-01-23T03:10:32;2.09;90.53
35085;SHT85;21267;51.032;6.998;2023-01-23T03:12:58;2.00;90.72
35085;SHT85;21267;51.032;6.998;2023-01-23T03:15:27;1.95;90.84
35085;SHT85;21267;51.032;6.998;2023-01-23T03:17:54;1.92;90.92
35085;SHT85;21267;51.032;6.998;2023-01-23T03:20:21;1.86;91.11
35085;SHT85;21267;51.032;6.998;2023-01-23T03:22:53;1.83;91.29
35085;SHT85;21267;51.032;6.998;2023-01-23T03:25:20;1.85;91.26
35085;SHT85;21267;51.032;6.998;2023-01-23T03:27:49;1.79;91.48
35085;SHT85;21267;51.032;6.998;2023-01-23T03:30:15;1.69;91.43
35085;SHT85;21267;51.032;6.998;2023-01-23T03:32:43;1.65;91.53
35085;SHT85;21267;51.032;6.998;2023-01-23T03:35:11;1.58;91.80
35085;SHT85;21267;51.032;6.998;2023-01-23T03:37:46;1.56;92.13
35085;SHT85;21267;51.032;6.998;2023-01-23T03:40:22;1.52;92.18
35085;SHT85;21267;51.032;6.998;2023-01-23T03:43:08;1.52;92.22
35085;SHT85;21267;51.032;6.998;2023-01-23T03:45:34;1.59;92.15
35085;SHT85;21267;51.032;6.998;2023-01-23T03:48:01;1.66;91.99
35085;SHT85;21267;51.032;6.998;2023-01-23T03:50:27;1.69;91.73
35085;SHT85;21267;51.032;6.998;2023-01-23T03:52:54;1.72;91.64
35085;SHT85;21267;51.032;6.998;2023-01-23T03:55:20;1.70;91.67
35085;SHT85;21267;51.032;6.998;2023-01-23T03:57:47;1.72;91.65
35085;SHT85;21267;51.032;6.998;2023-01-23T04:00:14;1.73;91.53
35085;SHT85;21267;51.032;6.998;2023-01-23T04:02:42;1.75;91.50
35085;SHT85;21267;51.032;6.998;2023-01-23T04:05:08;1.70;91.30
35085;SHT85;21267;51.032;6.998;2023-01-23T04:07:35;1.73;91.65
35085;SHT85;21267;51.032;6.998;2023-01-23T04:10:02;1.65;91.74
35085;SHT85;21267;51.032;6.998;2023-01-23T04:12:28;1.63;91.62
35085;SHT85;21267;51.032;6.998;2023-01-23T04:14:55;1.59;91.61
35085;SHT85;21267;51.032;6.998;2023-01-23T04:17:22;1.68;91.58
35085;SHT85;21267;51.032;6.998;2023-01-23T04:19:48;1.55;91.73
35085;SHT85;21267;51.032;6.998;2023-01-23T04:22:15;1.49;91.91
35085;SHT85;21267;51.032;6.998;2023-01-23T04:24:41;1.41;91.78
35085;SHT85;21267;51.032;6.998;2023-01-23T04:27:08;1.45;91.86
35085;SHT85;21267;51.032;6.998;2023-01-23T04:29:34;1.39;91.74
35085;SHT85;21267;51.032;6.998;2023-01-23T04:32:01;1.39;91.69
35085;SHT85;21267;51.032;6.998;2023-01-23T04:34:27;1.51;91.63
35085;SHT85;21267;51.032;6.998;2023-01-23T04:36:54;1.47;91.62
35085;SHT85;21267;51.032;6.998;2023-01-23T04:39:20;1.35;91.95
35085;SHT85;21267;51.032;6.998;2023-01-23T04:41:49;1.37;92.06
35085;SHT85;21267;51.032;6.998;2023-01-23T04:44:15;1.37;92.18
35085;SHT85;21267;51.032;6.998;2023-01-23T04:46:49;1.28;92.11
35085;SHT85;21267;51.032;6.998;2023-01-23T04:49:19;1.16;92.50
35085;SHT85;21267;51.032;6.998;2023-01-23T04:51:46;1.24;92.35
35085;SHT85;21267;51.032;6.998;2023-01-23T04:54:13;1.07;92.48
35085;SHT85;21267;51.032;6.998;2023-01-23T04:56:40;1.01;92.79
35085;SHT85;21267;51.032;6.998;2023-01-23T04:59:06;0.83;93.22
35085;SHT85;21267;51.032;6.998;2023-01-23T05:01:33;0.91;93.20
35085;SHT85;21267;51.032;6.998;2023-01-23T05:04:03;0.90;93.24
35085;SHT85;21267;51.032;6.998;2023-01-23T05:06:30;0.84;93.13
35085;SHT85;21267;51.032;6.998;2023-01-23T05:08:57;0.84;93.03
35085;SHT85;21267;51.032;6.998;2023-01-23T05:11:24;0.79;93.10
35085;SHT85;21267;51.032;6.998;2023-01-23T05:13:50;0.79;93.30
35085;SHT85;21267;51.032;6.998;2023-01-23T05:16:17;0.79;93.31
35085;SHT85;21267;51.032;6.998;2023-01-23T05:18:43;0.72;93.36
35085;SHT85;21267;51.032;6.998;2023-01-23T05:21:10;0.69;93.41
35085;SHT85;21267;51.032;6.998;2023-01-23T05:23:37;0.53;93.57
35085;SHT85;21267;51.032;6.998;2023-01-23T05:26:04;0.59;93.61
35085;SHT85;21267;51.032;6.998;2023-01-23T05:28:36;0.56;93.71
35085;SHT85;21267;51.032;6.998;2023-01-23T05:31:03;0.63;93.62
35085;SHT85;21267;51.032;6.998;2023-01-23T05:33:30;0.66;93.62
35085;SHT85;21267;51.032;6.998;2023-01-23T05:35:59;0.65;93.46
35085;SHT85;21267;51.032;6.998;2023-01-23T05:38:26;0.69;93.43
35085;SHT85;21267;51.032;6.998;2023-01-23T05:40:52;0.73;93.42
35085;SHT85;21267;51.032;6.998;2023-01-23T05:43:19;0.70;93.29
35085;SHT85;21267;51.032;6.998;2023-01-23T05:45:46;0.72;93.26
35085;SHT85;21267;51.032;6.998;2023-01-23T05:48:12;0.73;93.19
35085;SHT85;21267;51.032;6.998;2023-01-23T05:50:39;0.65;93.29
35085;SHT85;21267;51.032;6.998;2023-01-23T05:53:06;0.65;93.35
35085;SHT85;21267;51.032;6.998;2023-01-23T05:55:32;0.56;93.47
35085;SHT85;21267;51.032;6.998;2023-01-23T05:57:59;0.62;93.53
35085;SHT85;21267;51.032;6.998;2023-01-23T06:00:25;0.62;93.55
35085;SHT85;21267;51.032;6.998;2023-01-23T06:02:52;0.63;93.35
35085;SHT85;21267;51.032;6.998;2023-01-23T06:05:19;0.63;93.40
35085;SHT85;21267;51.032;6.998;2023-01-23T06:07:45;0.60;93.37
35085;SHT85;21267;51.032;6.998;2023-01-23T06:10:12;0.65;93.40
35085;SHT85;21267;51.032;6.998;2023-01-23T06:12:38;0.63;93.31
35085;SHT85;21267;51.032;6.998;2023-01-23T06:15:06;0.63;93.40
35085;SHT85;21267;51.032;6.998;2023-01-23T06:17:37;0.66;93.29
35085;SHT85;21267;51.032;6.998;2023-01-23T06:20:04;0.63;93.26
35085;SHT85;21267;51.032;6.998;2023-01-23T06:22:31;0.63;93.34
35085;SHT85;21267;51.032;6.998;2023-01-23T06:24:58;0.75;93.38
35085;SHT85;21267;51.032;6.998;2023-01-23T06:27:24;0.72;93.21
35085;SHT85;21267;51.032;6.998;2023-01-23T06:29:51;0.81;92.90
35085;SHT85;21267;51.032;6.998;2023-01-23T06:32:17;0.73;93.02
35085;SHT85;21267;51.032;6.998;2023-01-23T06:34:44;0.63;93.13
35085;SHT85;21267;51.032;6.998;2023-01-23T06:37:10;0.65;93.24
35085;SHT85;21267;51.032;6.998;2023-01-23T06:39:37;0.68;93.18
35085;SHT85;21267;51.032;6.998;2023-01-23T06:42:03;0.66;93.13
35085;SHT85;21267;51.032;6.998;2023-01-23T06:44:36;0.63;93.24
35085;SHT85;21267;51.032;6.998;2023-01-23T06:47:03;0.70;93.10
35085;SHT85;21267;51.032;6.998;2023-01-23T06:49:30;0.80;92.97
35085;SHT85;21267;51.032;6.998;2023-01-23T06:52:00;0.91;92.64
35085;SHT85;21267;51.032;6.998;2023-01-23T06:54:26;1.07;92.19
35085;SHT85;21267;51.032;6.998;2023-01-23T06:56:53;1.27;91.78
35085;SHT85;21267;51.032;6.998;2023-01-23T06:59:22;1.31;91.42
35085;SHT85;21267;51.032;6.998;2023-01-23T07:01:48;1.51;91.34
35085;SHT85;21267;51.032;6.998;2023-01-23T07:04:15;1.58;90.65
35085;SHT85;21267;51.032;6.998;2023-01-23T07:06:42;1.59;90.60
35085;SHT85;21267;51.032;6.998;2023-01-23T07:09:13;1.69;90.46
35085;SHT85;21267;51.032;6.998;2023-01-23T07:11:40;1.78;90.17
35085;SHT85;21267;51.032;6.998;2023-01-23T07:14:07;1.73;90.19
35085;SHT85;21267;51.032;6.998;2023-01-23T07:16:33;1.82;90.23
35085;SHT85;21267;51.032;6.998;2023-01-23T07:19:05;1.87;90.19
35085;SHT85;21267;51.032;6.998;2023-01-23T07:21:32;1.96;89.86
35085;SHT85;21267;51.032;6.998;2023-01-23T07:23:59;1.95;89.90
35085;SHT85;21267;51.032;6.998;2023-01-23T07:26:25;1.95;89.85
35085;SHT85;21267;51.032;6.998;2023-01-23T07:28:52;1.87;90.02
35085;SHT85;21267;51.032;6.998;2023-01-23T07:33:38;2.03;89.98
35085;SHT85;21267;51.032;6.998;2023-01-23T07:36:09;2.00;89.96
35085;SHT85;21267;51.032;6.998;2023-01-23T07:38:39;2.09;89.95
35085;SHT85;21267;51.032;6.998;2023-01-23T07:41:06;2.10;89.82
35085;SHT85;21267;51.032;6.998;2023-01-23T07:43:33;2.13;89.83
35085;SHT85;21267;51.032;6.998;2023-01-23T07:46:00;2.23;89.73
35085;SHT85;21267;51.032;6.998;2023-01-23T07:48:26;2.16;89.65
35085;SHT85;21267;51.032;6.998;2023-01-23T07:50:54;2.30;89.37
35085;SHT85;21267;51.032;6.998;2023-01-23T07:53:21;2.36;89.55
35085;SHT85;21267;51.032;6.998;2023-01-23T07:55:47;2.28;89.59
35085;SHT85;21267;51.032;6.998;2023-01-23T07:58:17;2.27;89.63
35085;SHT85;21267;51.032;6.998;2023-01-23T08:00:43;2.37;89.68
35085;SHT85;21267;51.032;6.998;2023-01-23T08:03:11;2.18;89.66
35085;SHT85;21267;51.032;6.998;2023-01-23T08:05:38;2.26;89.83
35085;SHT85;21267;51.032;6.998;2023-01-23T08:08:08;2.24;89.93
35085;SHT85;21267;51.032;6.998;2023-01-23T08:10:40;2.26;89.99
35085;SHT85;21267;51.032;6.998;2023-01-23T08:13:08;2.37;89.82
35085;SHT85;21267;51.032;6.998;2023-01-23T08:15:36;2.44;89.36
35085;SHT85;21267;51.032;6.998;2023-01-23T08:18:03;2.48;89.45
35085;SHT85;21267;51.032;6.998;2023-01-23T08:20:30;2.48;89.61
35085;SHT85;21267;51.032;6.998;2023-01-23T08:22:56;2.40;89.90
35085;SHT85;21267;51.032;6.998;2023-01-23T08:25:24;2.52;89.80
35085;SHT85;21267;51.032;6.998;2023-01-23T08:27:50;2.62;89.50
35085;SHT85;21267;51.032;6.998;2023-01-23T08:30:17;2.51;89.74
35085;SHT85;21267;51.032;6.998;2023-01-23T08:32:45;2.59;89.52
35085;SHT85;21267;51.032;6.998;2023-01-23T08:35:12;2.57;89.75
35085;SHT85;21267;51.032;6.998;2023-01-23T08:37:39;2.54;89.73
35085;SHT85;21267;51.032;6.998;2023-01-23T08:40:08;2.57;89.89
35085;SHT85;21267;51.032;6.998;2023-01-23T08:42:34;2.49;90.11
35085;SHT85;21267;51.032;6.998;2023-01-23T08:45:01;2.57;90.16
35085;SHT85;21267;51.032;6.998;2023-01-23T08:47:27;2.49;89.95
35085;SHT85;21267;51.032;6.998;2023-01-23T08:49:54;2.49;89.94
35085;SHT85;21267;51.032;6.998;2023-01-23T08:52:21;2.57;90.20
35085;SHT85;21267;51.032;6.998;2023-01-23T08:54:48;2.54;89.88
35085;SHT85;21267;51.032;6.998;2023-01-23T08:57:15;2.55;90.19
35085;SHT85;21267;51.032;6.998;2023-01-23T08:59:41;2.71;89.94
35085;SHT85;21267;51.032;6.998;2023-01-23T09:02:12;2.58;89.94
35085;SHT85;21267;51.032;6.998;2023-01-23T09:04:38;2.68;90.17
35085;SHT85;21267;51.032;6.998;2023-01-23T09:07:05;2.72;89.85
35085;SHT85;21267;51.032;6.998;2023-01-23T09:09:32;2.68;89.62
35085;SHT85;21267;51.032;6.998;2023-01-23T09:11:58;2.78;89.58
35085;SHT85;21267;51.032;6.998;2023-01-23T09:14:25;2.81;89.44
35085;SHT85;21267;51.032;6.998;2023-01-23T09:16:51;2.85;88.87
35085;SHT85;21267;51.032;6.998;2023-01-23T09:19:18;2.82;89.23
35085;SHT85;21267;51.032;6.998;2023-01-23T09:21:44;2.82;89.01
35085;SHT85;21267;51.032;6.998;2023-01-23T09:24:11;2.84;88.99
35085;SHT85;21267;51.032;6.998;2023-01-23T09:26:38;2.89;89.06
35085;SHT85;21267;51.032;6.998;2023-01-23T09:29:04;2.89;88.80
35085;SHT85;21267;51.032;6.998;2023-01-23T09:31:31;2.88;88.87
35085;SHT85;21267;51.032;6.998;2023-01-23T09:33:57;3.06;88.51
35085;SHT85;21267;51.032;6.998;2023-01-23T09:36:24;3.12;88.29
35085;SHT85;21267;51.032;6.998;2023-01-23T09:39:07;3.12;88.22
35085;SHT85;21267;51.032;6.998;2023-01-23T09:41:34;3.09;88.09
35085;SHT85;21267;51.032;6.998;2023-01-23T09:44:40;3.15;87.71
35085;SHT85;21267;51.032;6.998;2023-01-23T09:47:15;3.16;87.62
35085;SHT85;21267;51.032;6.998;2023-01-23T09:49:52;3.23;87.67
35085;SHT85;21267;51.032;6.998;2023-01-23T09:52:25;3.23;87.39
35085;SHT85;21267;51.032;6.998;2023-01-23T09:54:58;3.30;87.35
35085;SHT85;21267;51.032;6.998;2023-01-23T09:57:32;3.41;87.12
35085;SHT85;21267;51.032;6.998;2023-01-23T10:00:16;3.20;86.89
35085;SHT85;21267;51.032;6.998;2023-01-23T10:02:46;3.40;87.12
35085;SHT85;21267;51.032;6.998;2023-01-23T10:05:14;3.40;86.82
35085;SHT85;21267;51.032;6.998;2023-01-23T10:17:18;3.17;86.76
35085;SHT85;21267;51.032;6.998;2023-01-23T10:22:40;3.26;86.71
35085;SHT85;21267;51.032;6.998;2023-01-23T10:25:21;3.13;86.89
35085;SHT85;21267;51.032;6.998;2023-01-23T10:27:50;3.38;86.76
35085;SHT85;21267;51.032;6.998;2023-01-23T10:30:24;3.33;86.66
35085;SHT85;21267;51.032;6.998;2023-01-23T10:35:35;3.38;86.52
35085;SHT85;21267;51.032;6.998;2023-01-23T10:40:56;3.57;86.25
35085;SHT85;21267;51.032;6.998;2023-01-23T10:43:53;3.58;85.87
35085;SHT85;21267;51.032;6.998;2023-01-23T10:46:26;3.81;85.55
35085;SHT85;21267;51.032;6.998;2023-01-23T10:48:54;3.74;85.05
35085;SHT85;21267;51.032;6.998;2023-01-23T10:51:29;3.64;85.18
35085;SHT85;21267;51.032;6.998;2023-01-23T10:57:33;3.94;84.85
35085;SHT85;21267;51.032;6.998;2023-01-23T10:59:55;3.87;84.72
35085;SHT85;21267;51.032;6.998;2023-01-23T11:02:27;4.12;84.36
35085;SHT85;21267;51.032;6.998;2023-01-23T11:04:55;3.98;84.41
35085;SHT85;21267;51.032;6.998;2023-01-23T11:07:24;4.16;84.25
35085;SHT85;21267;51.032;6.998;2023-01-23T11:10:13;4.42;83.30
35085;SHT85;21267;51.032;6.998;2023-01-23T11:12:52;4.15;83.52
35085;SHT85;21267;51.032;6.998;2023-01-23T11:17:48;4.42;83.31
35085;SHT85;21267;51.032;6.998;2023-01-23T11:23:19;4.15;83.16
35085;SHT85;21267;51.032;6.998;2023-01-23T11:25:55;4.16;82.78
35085;SHT85;21267;51.032;6.998;2023-01-23T11:28:33;4.08;83.01
35085;SHT85;21267;51.032;6.998;2023-01-23T11:33:56;4.26;82.44
35085;SHT85;21267;51.032;6.998;2023-01-23T11:41:56;4.54;80.19
35085;SHT85;21267;51.032;6.998;2023-01-23T11:44:23;4.54;79.81
35085;SHT85;21267;51.032;6.998;2023-01-23T12:06:38;4.92;79.84
35085;SHT85;21267;51.032;6.998;2023-01-23T12:17:56;4.92;78.33
35085;SHT85;21267;51.032;6.998;2023-01-23T12:23:31;5.03;77.95
35085;SHT85;21267;51.032;6.998;2023-01-23T12:28:52;4.45;78.30
35085;SHT85;21267;51.032;6.998;2023-01-23T12:34:01;4.60;77.01
35085;SHT85;21267;51.032;6.998;2023-01-23T12:39:58;4.50;76.49
35085;SHT85;21267;51.032;6.998;2023-01-23T12:45:22;4.60;76.75
35085;SHT85;21267;51.032;6.998;2023-01-23T12:48:07;4.47;76.44
35085;SHT85;21267;51.032;6.998;2023-01-23T12:50:57;4.47;75.78
35085;SHT85;21267;51.032;6.998;2023-01-23T12:53:27;4.49;76.33
35085;SHT85;21267;51.032;6.998;2023-01-23T12:58:31;4.74;75.93
35085;SHT85;21267;51.032;6.998;2023-01-23T13:04:16;4.67;75.70
35085;SHT85;21267;51.032;6.998;2023-01-23T13:12:54;4.60;75.86
35085;SHT85;21267;51.032;6.998;2023-01-23T13:15:30;4.68;75.98
35085;SHT85;21267;51.032;6.998;2023-01-23T13:18:21;4.80;76.60
35085;SHT85;21267;51.032;6.998;2023-01-23T13:20:58;4.73;76.95
35085;SHT85;21267;51.032;6.998;2023-01-23T13:23:43;4.71;76.82
35085;SHT85;21267;51.032;6.998;2023-01-23T13:28:52;4.58;76.75
35085;SHT85;21267;51.032;6.998;2023-01-23T13:33:54;4.76;77.14
35085;SHT85;21267;51.032;6.998;2023-01-23T13:36:36;4.91;76.97
35085;SHT85;21267;51.032;6.998;2023-01-23T13:41:43;4.63;77.37
35085;SHT85;21267;51.032;6.998;2023-01-23T13:52:41;4.78;77.53
35085;SHT85;21267;51.032;6.998;2023-01-23T13:55:43;4.74;78.55
35085;SHT85;21267;51.032;6.998;2023-01-23T13:58:42;4.63;79.45
35085;SHT85;21267;51.032;6.998;2023-01-23T14:01:25;4.63;79.62
35085;SHT85;21267;51.032;6.998;2023-01-23T14:04:25;4.53;79.67
35085;SHT85;21267;51.032;6.998;2023-01-23T14:07:31;4.52;79.68
35085;SHT85;21267;51.032;6.998;2023-01-23T14:10:32;4.54;79.60
35085;SHT85;21267;51.032;6.998;2023-01-23T14:13:16;4.49;79.91
35085;SHT85;21267;51.032;6.998;2023-01-23T14:16:00;4.36;80.37
35085;SHT85;21267;51.032;6.998;2023-01-23T15:36:38;4.02;82.17
35085;SHT85;21267;51.032;6.998;2023-01-23T15:39:16;3.81;82.56
35085;SHT85;21267;51.032;6.998;2023-01-23T15:41:47;3.70;82.88
35085;SHT85;21267;51.032;6.998;2023-01-23T15:44:17;3.68;83.16
35085;SHT85;21267;51.032;6.998;2023-01-23T15:46:45;3.84;82.96
35085;SHT85;21267;51.032;6.998;2023-01-23T15:49:12;3.79;82.97
35085;SHT85;21267;51.032;6.998;2023-01-23T15:51:51;3.84;82.73
35085;SHT85;21267;51.032;6.998;2023-01-23T15:54:23;3.73;82.92
35085;SHT85;21267;51.032;6.998;2023-01-23T15:56:51;3.67;83.11
35085;SHT85;21267;51.032;6.998;2023-01-23T15:59:32;3.81;83.09
35085;SHT85;21267;51.032;6.998;2023-01-23T16:01:59;3.79;82.94
35085;SHT85;21267;51.032;6.998;2023-01-23T16:04:27;3.78;82.88
35085;SHT85;21267;51.032;6.998;2023-01-23T16:06:53;3.81;82.76
35085;SHT85;21267;51.032;6.998;2023-01-23T16:09:25;3.78;82.81
35085;SHT85;21267;51.032;6.998;2023-01-23T16:11:53;3.82;82.83
35085;SHT85;21267;51.032;6.998;2023-01-23T16:14:19;3.88;82.38
35085;SHT85;21267;51.032;6.998;2023-01-23T16:16:46;3.77;82.49
35085;SHT85;21267;51.032;6.998;2023-01-23T16:19:13;3.81;82.41
35085;SHT85;21267;51.032;6.998;2023-01-23T16:21:40;3.84;82.35
35085;SHT85;21267;51.032;6.998;2023-01-23T16:24:22;3.71;82.43
35085;SHT85;21267;51.032;6.998;2023-01-23T16:27:03;3.71;82.49
35085;SHT85;21267;51.032;6.998;2023-01-23T16:29:43;3.60;82.54
35085;SHT85;21267;51.032;6.998;2023-01-23T16:32:24;3.57;82.77
35085;SHT85;21267;51.032;6.998;2023-01-23T16:34:58;3.56;82.79
35085;SHT85;21267;51.032;6.998;2023-01-23T16:37:24;3.48;82.99
35085;SHT85;21267;51.032;6.998;2023-01-23T16:39:51;3.47;82.87
35085;SHT85;21267;51.032;6.998;2023-01-23T16:42:32;3.40;82.89
35085;SHT85;21267;51.032;6.998;2023-01-23T16:45:17;3.41;82.91
35085;SHT85;21267;51.032;6.998;2023-01-23T16:47:59;3.40;83.03
35085;SHT85;21267;51.032;6.998;2023-01-23T16:50:42;3.61;82.55
35085;SHT85;21267;51.032;6.998;2023-01-23T16:53:34;3.50;82.49
35085;SHT85;21267;51.032;6.998;2023-01-23T16:56:06;3.61;82.61
35085;SHT85;21267;51.032;6.998;2023-01-23T16:58:36;3.43;82.67
35085;SHT85;21267;51.032;6.998;2023-01-23T17:01:14;3.53;82.87
35085;SHT85;21267;51.032;6.998;2023-01-23T17:03:41;3.48;82.51
35085;SHT85;21267;51.032;6.998;2023-01-23T17:06:14;3.61;82.34
35085;SHT85;21267;51.032;6.998;2023-01-23T17:08:41;3.66;82.49
35085;SHT85;21267;51.032;6.998;2023-01-23T17:11:14;3.70;82.24
35085;SHT85;21267;51.032;6.998;2023-01-23T17:13:42;3.63;82.47
35085;SHT85;21267;51.032;6.998;2023-01-23T17:16:09;3.56;82.43
35085;SHT85;21267;51.032;6.998;2023-01-23T17:18:52;3.61;82.08
35085;SHT85;21267;51.032;6.998;2023-01-23T17:21:20;3.61;82.36
35085;SHT85;21267;51.032;6.998;2023-01-23T17:23:49;3.70;82.14
35085;SHT85;21267;51.032;6.998;2023-01-23T17:26:29;3.61;82.59
35085;SHT85;21267;51.032;6.998;2023-01-23T17:29:10;3.63;82.67
35085;SHT85;21267;51.032;6.998;2023-01-23T17:31:50;3.70;82.25
35085;SHT85;21267;51.032;6.998;2023-01-23T17:34:25;3.66;82.35
35085;SHT85;21267;51.032;6.998;2023-01-23T17:36:52;3.61;81.94
35085;SHT85;21267;51.032;6.998;2023-01-23T17:39:21;3.56;82.28
35085;SHT85;21267;51.032;6.998;2023-01-23T17:41:48;3.51;82.26
35085;SHT85;21267;51.032;6.998;2023-01-23T17:44:16;3.75;82.04
35085;SHT85;21267;51.032;6.998;2023-01-23T17:46:43;3.67;81.78
35085;SHT85;21267;51.032;6.998;2023-01-23T17:49:28;3.57;82.12
35085;SHT85;21267;51.032;6.998;2023-01-23T17:51:57;3.70;82.01
35085;SHT85;21267;51.032;6.998;2023-01-23T17:54:23;3.51;81.80
35085;SHT85;21267;51.032;6.998;2023-01-23T17:57:06;3.78;81.35
35085;SHT85;21267;51.032;6.998;2023-01-23T17:59:46;3.48;81.39
35085;SHT85;21267;51.032;6.998;2023-01-23T18:02:28;3.47;81.78
35085;SHT85;21267;51.032;6.998;2023-01-23T18:05:11;3.46;81.94
35085;SHT85;21267;51.032;6.998;2023-01-23T18:07:52;3.64;81.95
35085;SHT85;21267;51.032;6.998;2023-01-23T18:10:33;3.66;81.63
35085;SHT85;21267;51.032;6.998;2023-01-23T18:13:39;3.68;81.42
35085;SHT85;21267;51.032;6.998;2023-01-23T18:16:25;3.53;81.70
35085;SHT85;21267;51.032;6.998;2023-01-23T18:19:06;3.67;81.38
35085;SHT85;21267;51.032;6.998;2023-01-23T18:21:39;3.75;81.17
35085;SHT85;21267;51.032;6.998;2023-01-23T18:24:19;3.57;81.44
35085;SHT85;21267;51.032;6.998;2023-01-23T18:26:58;3.48;81.66
35085;SHT85;21267;51.032;6.998;2023-01-23T18:35:37;3.64;81.38
35085;SHT85;21267;51.032;6.998;2023-01-23T18:38:13;3.64;81.30
35085;SHT85;21267;51.032;6.998;2023-01-23T18:40:58;3.67;81.48
35085;SHT85;21267;51.032;6.998;2023-01-23T18:43:42;3.54;81.32
35085;SHT85;21267;51.032;6.998;2023-01-23T18:46:12;3.50;81.44
35085;SHT85;21267;51.032;6.998;2023-01-23T18:48:41;3.63;81.33
35085;SHT85;21267;51.032;6.998;2023-01-23T18:59:16;3.57;81.50
35085;SHT85;21267;51.032;6.998;2023-01-23T19:04:47;3.48;81.67
35085;SHT85;21267;51.032;6.998;2023-01-23T19:07:17;3.47;81.21
35085;SHT85;21267;51.032;6.998;2023-01-23T19:09:45;3.40;81.47
35085;SHT85;21267;51.032;6.998;2023-01-23T19:15:59;3.56;81.35
35085;SHT85;21267;51.032;6.998;2023-01-23T19:21:17;3.53;81.22
35085;SHT85;21267;51.032;6.998;2023-01-23T19:24:03;3.48;81.21
35085;SHT85;21267;51.032;6.998;2023-01-23T19:26:38;3.53;81.35
35085;SHT85;21267;51.032;6.998;2023-01-23T19:29:07;3.53;81.41
35085;SHT85;21267;51.032;6.998;2023-01-23T19:31:46;3.44;81.57
35085;SHT85;21267;51.032;6.998;2023-01-23T19:34:31;3.43;81.17
35085;SHT85;21267;51.032;6.998;2023-01-23T19:36:58;3.43;81.36
35085;SHT85;21267;51.032;6.998;2023-01-23T19:39:24;3.56;81.14
35085;SHT85;21267;51.032;6.998;2023-01-23T19:41:51;3.47;81.13
35085;SHT85;21267;51.032;6.998;2023-01-23T19:44:19;3.56;81.15
35085;SHT85;21267;51.032;6.998;2023-01-23T19:46:50;3.53;81.31
35085;SHT85;21267;51.032;6.998;2023-01-23T19:49:16;3.60;81.26
35085;SHT85;21267;51.032;6.998;2023-01-23T19:51:43;3.57;81.33